createdAt,value
2023-02-20T00:01:52.044Z,67.76
2023-02-20T00:04:19.401Z,67.85
2023-02-20T00:06:46.020Z,67.68
2023-02-20T00:09:13.299Z,67.71
2023-02-20T00:11:39.865Z,67.64
2023-02-20T00:14:06.804Z,68.00
2023-02-20T00:16:33.337Z,67.70
2023-02-20T00:18:59.916Z,67.88
2023-02-20T00:21:26.524Z,67.62
2023-02-20T00:23:53.075Z,67.70
2023-02-20T00:26:19.597Z,67.65
2023-02-20T00:28:46.207Z,67.73
2023-02-20T00:31:15.877Z,67.59
2023-02-20T00:33:42.761Z,67.58
2023-02-20T00:36:18.336Z,67.76
2023-02-20T00:38:45.733Z,67.75
2023-02-20T00:41:14.342Z,67.82
2023-02-20T00:43:42.023Z,67.83
2023-02-20T00:46:12.212Z,67.76
2023-02-20T00:48:39.086Z,67.68
2023-02-20T00:51:05.854Z,67.77
2023-02-20T00:53:32.614Z,67.86
2023-02-20T00:55:59.229Z,67.66
2023-02-20T00:58:25.791Z,67.79
2023-02-20T01:00:52.305Z,67.64
2023-02-20T01:03:18.902Z,67.52
2023-02-20T01:05:45.508Z,67.60
2023-02-20T01:08:12.054Z,67.59
2023-02-20T01:10:38.701Z,67.95
2023-02-20T01:13:05.273Z,67.79
2023-02-20T01:15:31.861Z,68.12
2023-02-20T01:17:58.925Z,68.16
2023-02-20T01:20:25.438Z,68.45
2023-02-20T01:22:52.050Z,68.67
2023-02-20T01:25:18.917Z,69.08
2023-02-20T01:27:45.465Z,69.17
2023-02-20T01:30:12.249Z,69.39
2023-02-20T01:32:38.979Z,69.30
2023-02-20T01:35:06.350Z,69.46
2023-02-20T01:37:33.131Z,69.40
2023-02-20T01:39:59.925Z,69.50
2023-02-20T01:42:29.062Z,69.65
2023-02-20T01:44:55.817Z,69.75
2023-02-20T01:47:27.140Z,69.31
2023-02-20T01:50:03.922Z,69.21
2023-02-20T01:52:32.124Z,68.92
2023-02-20T01:55:03.894Z,68.98
2023-02-20T01:57:32.595Z,69.10
2023-02-20T02:00:06.147Z,69.04
2023-02-20T02:02:35.540Z,69.10
2023-02-20T02:05:02.856Z,68.87
2023-02-20T02:07:31.238Z,69.01
2023-02-20T02:10:11.720Z,68.67
2023-02-20T02:12:39.076Z,68.81
2023-02-20T02:15:14.701Z,68.72
2023-02-20T02:17:41.180Z,68.82
2023-02-20T02:20:22.646Z,68.66
2023-02-20T02:23:16.776Z,68.53
2023-02-20T02:25:49.365Z,68.58
2023-02-20T02:28:34.642Z,68.60
2023-02-20T02:31:19.446Z,68.78
2023-02-20T02:33:55.101Z,68.49
2023-02-20T02:36:28.599Z,68.62
2023-02-20T02:38:58.161Z,68.26
2023-02-20T02:41:58.530Z,68.24
2023-02-20T02:44:36.875Z,68.25
2023-02-20T02:47:08.577Z,68.18
2023-02-20T02:49:37.858Z,68.16
2023-02-20T02:52:05.290Z,68.04
2023-02-20T02:54:31.959Z,67.93
2023-02-20T02:57:24.629Z,67.70
2023-02-20T02:59:56.274Z,67.85
2023-02-20T03:02:23.498Z,67.66
2023-02-20T03:04:52.050Z,67.72
2023-02-20T03:07:22.128Z,67.52
2023-02-20T03:09:52.806Z,67.31
2023-02-20T03:12:20.346Z,67.24
2023-02-20T03:15:06.897Z,67.34
2023-02-20T03:17:40.478Z,67.33
2023-02-20T03:20:11.119Z,67.14
2023-02-20T03:22:48.275Z,67.14
2023-02-20T03:25:20.080Z,67.07
2023-02-20T03:27:56.465Z,66.99
2023-02-20T03:30:24.905Z,66.83
2023-02-20T03:33:14.600Z,66.91
2023-02-20T03:36:01.395Z,66.68
2023-02-20T03:38:47.986Z,66.72
2023-02-20T03:41:34.699Z,66.73
2023-02-20T03:44:04.743Z,66.66
2023-02-20T03:46:32.530Z,66.59
2023-02-20T03:49:04.655Z,66.52
2023-02-20T03:51:49.722Z,66.41
2023-02-20T03:54:16.478Z,66.27
2023-02-20T03:56:45.278Z,66.44
2023-02-20T03:59:36.692Z,66.17
2023-02-20T04:02:09.508Z,66.36
2023-02-20T04:04:40.521Z,66.45
2023-02-20T04:07:10.723Z,66.45
2023-02-20T04:09:39.278Z,66.28
2023-02-20T04:12:11.734Z,66.21
2023-02-20T04:14:39.070Z,66.27
2023-02-20T04:17:10.392Z,66.22
2023-02-20T04:19:37.079Z,66.33
2023-02-20T04:22:07.671Z,66.14
2023-02-20T04:24:45.308Z,66.08
2023-02-20T04:27:12.754Z,65.92
2023-02-20T04:29:39.353Z,66.09
2023-02-20T04:32:06.313Z,65.96
2023-02-20T04:34:33.368Z,65.93
2023-02-20T04:37:15.326Z,66.26
2023-02-20T04:39:42.063Z,65.81
2023-02-20T04:42:08.697Z,65.87
2023-02-20T04:44:36.789Z,65.88
2023-02-20T04:47:05.903Z,66.00
2023-02-20T04:49:32.520Z,65.63
2023-02-20T04:51:59.800Z,65.51
2023-02-20T04:54:27.701Z,65.72
2023-02-20T04:56:54.259Z,65.65
2023-02-20T04:59:20.951Z,65.54
2023-02-20T05:01:52.204Z,65.58
2023-02-20T05:04:19.728Z,65.27
2023-02-20T05:06:49.315Z,65.54
2023-02-20T05:09:16.027Z,65.43
2023-02-20T05:11:43.153Z,65.33
2023-02-20T05:14:09.768Z,65.36
2023-02-20T05:16:40.466Z,65.42
2023-02-20T05:19:07.896Z,65.27
2023-02-20T05:21:53.555Z,65.30
2023-02-20T05:24:21.091Z,65.24
2023-02-20T05:26:47.601Z,64.87
2023-02-20T05:29:14.297Z,65.28
2023-02-20T05:31:42.046Z,65.19
2023-02-20T05:34:09.041Z,65.08
2023-02-20T05:36:35.698Z,65.14
2023-02-20T05:39:02.626Z,65.12
2023-02-20T05:41:29.258Z,65.00
2023-02-20T05:43:57.695Z,64.83
2023-02-20T05:46:25.500Z,65.02
2023-02-20T05:48:53.776Z,64.98
2023-02-20T05:51:28.441Z,64.82
2023-02-20T05:53:55.967Z,64.94
2023-02-20T05:56:22.851Z,64.68
2023-02-20T05:58:49.879Z,64.83
2023-02-20T06:01:21.918Z,64.80
2023-02-20T06:03:48.553Z,64.77
2023-02-20T06:06:16.019Z,64.95
2023-02-20T06:08:42.773Z,64.66
2023-02-20T06:11:10.587Z,64.55
2023-02-20T06:13:39.808Z,64.55
2023-02-20T06:16:06.738Z,64.60
2023-02-20T06:18:33.270Z,64.45
2023-02-20T06:20:59.827Z,64.32
2023-02-20T06:23:26.368Z,64.29
2023-02-20T06:25:52.934Z,64.18
2023-02-20T06:28:21.475Z,64.17
2023-02-20T06:30:48.136Z,64.06
2023-02-20T06:33:14.670Z,64.06
2023-02-20T06:35:41.269Z,64.12
2023-02-20T06:38:07.829Z,64.00
2023-02-20T06:40:34.414Z,63.74
2023-02-20T06:43:01.031Z,64.02
2023-02-20T06:45:27.588Z,63.79
2023-02-20T06:47:54.138Z,63.74
2023-02-20T06:50:20.756Z,63.89
2023-02-20T06:52:47.310Z,63.87
2023-02-20T06:55:13.977Z,63.88
2023-02-20T06:57:40.594Z,63.84
2023-02-20T07:00:08.552Z,63.79
2023-02-20T07:02:37.121Z,63.61
2023-02-20T07:05:07.316Z,63.58
2023-02-20T07:07:33.957Z,63.58
2023-02-20T07:10:01.578Z,63.59
2023-02-20T07:12:32.027Z,63.42
2023-02-20T07:14:59.426Z,63.43
2023-02-20T07:17:26.266Z,63.33
2023-02-20T07:19:52.893Z,63.29
2023-02-20T07:22:19.476Z,63.27
2023-02-20T07:24:50.607Z,63.33
2023-02-20T07:27:17.838Z,63.27
2023-02-20T07:29:48.346Z,63.23
2023-02-20T07:32:17.076Z,63.08
2023-02-20T07:34:54.677Z,62.90
2023-02-20T07:37:27.959Z,63.16
2023-02-20T07:39:54.556Z,63.12
2023-02-20T07:42:21.112Z,63.17
2023-02-20T07:44:48.883Z,62.62
2023-02-20T07:47:15.798Z,63.03
2023-02-20T07:49:42.590Z,63.04
2023-02-20T07:52:09.215Z,63.08
2023-02-20T07:54:38.151Z,62.78
2023-02-20T07:57:04.840Z,62.92
2023-02-20T07:59:31.597Z,62.89
2023-02-20T08:01:58.223Z,62.87
2023-02-20T08:04:25.090Z,62.72
2023-02-20T08:06:51.692Z,62.76
2023-02-20T08:09:18.359Z,62.64
2023-02-20T08:11:45.316Z,62.72
2023-02-20T08:14:13.585Z,62.82
2023-02-20T08:16:40.314Z,62.63
2023-02-20T08:19:06.950Z,62.44
2023-02-20T08:21:33.618Z,62.35
2023-02-20T08:24:00.333Z,62.21
2023-02-20T08:26:27.149Z,62.46
2023-02-20T08:28:54.088Z,62.13
2023-02-20T08:31:31.697Z,62.43
2023-02-20T08:33:59.123Z,62.32
2023-02-20T08:36:25.772Z,62.11
2023-02-20T08:38:52.493Z,61.90
2023-02-20T08:41:19.178Z,62.05
2023-02-20T08:43:45.804Z,62.11
2023-02-20T08:46:13.264Z,61.95
2023-02-20T08:48:41.655Z,62.13
2023-02-20T08:51:08.762Z,62.17
2023-02-20T08:53:35.379Z,62.36
2023-02-20T08:56:02.033Z,62.59
2023-02-20T08:58:28.588Z,62.51
2023-02-20T09:00:55.749Z,62.33
2023-02-20T09:03:24.043Z,61.96
2023-02-20T09:05:50.772Z,61.99
2023-02-20T09:08:17.320Z,61.86
2023-02-20T09:10:44.378Z,61.79
2023-02-20T09:13:11.883Z,62.10
2023-02-20T09:15:41.151Z,62.33
2023-02-20T09:18:11.037Z,62.30
2023-02-20T09:20:38.451Z,62.78
2023-02-20T09:23:06.285Z,62.91
2023-02-20T09:25:33.189Z,62.98
2023-02-20T09:27:59.804Z,63.07
2023-02-20T09:30:26.623Z,63.15
2023-02-20T09:32:54.448Z,63.63
2023-02-20T09:35:25.573Z,63.89
2023-02-20T09:37:53.105Z,63.90
2023-02-20T09:40:24.708Z,63.77
2023-02-20T09:43:15.241Z,63.84
2023-02-20T09:45:46.638Z,63.93
2023-02-20T09:48:28.869Z,63.89
2023-02-20T09:51:02.938Z,63.80
2023-02-20T09:53:37.845Z,63.54
2023-02-20T09:56:06.748Z,63.52
2023-02-20T09:59:00.215Z,63.42
2023-02-20T10:01:28.307Z,63.24
2023-02-20T10:03:56.268Z,63.15
2023-02-20T10:06:26.976Z,63.05
2023-02-20T10:08:53.859Z,62.89
2023-02-20T10:11:32.169Z,62.97
2023-02-20T10:14:20.323Z,62.95
2023-02-20T10:16:55.656Z,62.84
2023-02-20T10:19:27.815Z,62.94
2023-02-20T10:22:20.732Z,63.26
2023-02-20T10:24:59.362Z,63.20
2023-02-20T10:27:49.197Z,63.30
2023-02-20T10:30:24.605Z,63.18
2023-02-20T10:32:59.406Z,63.24
2023-02-20T10:35:32.885Z,62.96
2023-02-20T10:38:07.437Z,63.02
2023-02-20T10:40:53.415Z,62.58
2023-02-20T10:43:23.998Z,62.65
2023-02-20T10:46:24.835Z,62.75
2023-02-20T10:48:52.312Z,62.65
2023-02-20T10:51:25.064Z,62.64
2023-02-20T10:53:57.718Z,62.63
2023-02-20T10:56:42.813Z,62.43
2023-02-20T10:59:17.685Z,62.38
2023-02-20T11:01:45.332Z,62.19
2023-02-20T11:04:21.924Z,62.19
2023-02-20T11:07:00.408Z,61.97
2023-02-20T11:09:28.884Z,61.85
2023-02-20T11:11:55.945Z,61.85
2023-02-20T11:14:52.328Z,61.89
2023-02-20T11:17:27.049Z,62.00
2023-02-20T11:19:55.544Z,61.89
2023-02-20T11:22:47.728Z,61.57
2023-02-20T11:25:37.250Z,61.34
2023-02-20T11:28:19.704Z,61.31
2023-02-20T11:30:48.808Z,61.39
2023-02-20T11:33:21.552Z,61.27
2023-02-20T11:35:50.752Z,61.23
2023-02-20T11:38:23.355Z,61.38
2023-02-20T11:41:05.031Z,61.47
2023-02-20T11:44:00.140Z,61.14
2023-02-20T11:46:27.263Z,61.38
2023-02-20T11:48:56.924Z,60.79
2023-02-20T11:51:35.691Z,60.72
2023-02-20T11:54:22.711Z,61.14
2023-02-20T11:57:25.508Z,60.93
2023-02-20T12:00:09.560Z,61.23
2023-02-20T12:02:36.218Z,61.27
2023-02-20T12:05:11.513Z,61.42
2023-02-20T12:07:41.269Z,61.25
2023-02-20T12:10:16.549Z,61.25
2023-02-20T12:12:43.130Z,61.16
2023-02-20T12:15:17.863Z,60.78
2023-02-20T12:18:05.748Z,60.83
2023-02-20T12:20:34.941Z,60.78
2023-02-20T12:23:53.948Z,60.63
2023-02-20T12:26:30.642Z,60.94
2023-02-20T12:29:06.328Z,60.69
2023-02-20T12:31:52.674Z,60.49
2023-02-20T12:34:53.827Z,60.53
2023-02-20T12:37:42.186Z,60.26
2023-02-20T12:40:41.257Z,60.48
2023-02-20T12:43:37.544Z,60.20
2023-02-20T12:46:09.611Z,60.28
2023-02-20T12:48:58.093Z,60.49
2023-02-20T12:51:46.274Z,60.49
2023-02-20T12:54:25.115Z,60.61
2023-02-20T12:56:59.569Z,60.24
2023-02-20T12:59:35.491Z,60.53
2023-02-20T13:02:40.893Z,60.51
2023-02-20T13:05:12.236Z,60.61
2023-02-20T13:07:41.762Z,60.48
2023-02-20T13:10:15.737Z,60.22
2023-02-20T13:12:42.875Z,60.41
2023-02-20T13:16:00.413Z,60.30
2023-02-20T13:18:45.558Z,60.22
2023-02-20T13:21:15.617Z,60.27
2023-02-20T13:23:42.344Z,60.26
2023-02-20T13:26:35.693Z,60.26
2023-02-20T13:29:16.429Z,60.45
2023-02-20T13:32:18.454Z,60.62
2023-02-20T13:34:44.998Z,60.81
2023-02-20T13:37:33.753Z,60.71
2023-02-20T13:40:39.861Z,60.75
2023-02-20T13:43:18.157Z,60.81
2023-02-20T13:45:46.237Z,60.67
2023-02-20T13:48:30.865Z,60.71
2023-02-20T13:51:15.572Z,60.81
2023-02-20T13:54:01.419Z,60.79
2023-02-20T13:56:43.545Z,60.75
2023-02-20T13:59:13.201Z,60.91
2023-02-20T14:02:02.446Z,60.81
2023-02-20T14:04:29.880Z,60.88
2023-02-20T14:06:58.750Z,60.56
2023-02-20T14:09:32.444Z,60.77
2023-02-20T14:12:05.877Z,60.78
2023-02-20T14:14:36.462Z,60.94
2023-02-20T14:17:25.316Z,60.86
2023-02-20T14:20:13.527Z,60.91
2023-02-20T14:22:40.805Z,61.03
2023-02-20T14:25:23.991Z,61.12
2023-02-20T14:27:51.405Z,61.25
2023-02-20T14:30:23.542Z,61.34
2023-02-20T14:32:58.359Z,61.06
2023-02-20T14:35:49.651Z,61.41
2023-02-20T14:38:28.693Z,61.06
2023-02-20T14:40:55.304Z,61.33
2023-02-20T14:43:23.869Z,61.23
2023-02-20T14:46:05.774Z,61.24
2023-02-20T14:48:33.199Z,61.35
2023-02-20T14:51:13.344Z,61.23
2023-02-20T14:53:40.569Z,61.35
2023-02-20T14:56:18.121Z,61.53
2023-02-20T14:58:46.378Z,61.20
2023-02-20T15:01:17.329Z,61.23
2023-02-20T15:03:55.382Z,61.30
2023-02-20T15:06:24.573Z,61.23
2023-02-20T15:08:56.822Z,61.22
2023-02-20T15:11:23.430Z,61.12
2023-02-20T15:13:50.062Z,61.00
2023-02-20T15:16:22.644Z,61.36
2023-02-20T15:18:50.545Z,61.24
2023-02-20T15:21:32.526Z,60.95
2023-02-20T15:24:11.949Z,61.29
2023-02-20T15:26:38.846Z,61.19
2023-02-20T15:29:23.866Z,61.19
2023-02-20T15:32:25.996Z,61.17
2023-02-20T15:34:55.331Z,61.37
2023-02-20T15:37:30.469Z,60.97
2023-02-20T15:40:26.214Z,61.01
2023-02-20T15:42:57.241Z,61.08
2023-02-20T15:45:29.807Z,61.14
2023-02-20T15:47:57.603Z,61.04
2023-02-20T15:50:27.223Z,61.39
2023-02-20T15:52:54.247Z,61.13
2023-02-20T15:55:22.356Z,61.35
2023-02-20T16:06:42.388Z,61.87
2023-02-20T16:09:09.533Z,61.64
2023-02-20T16:11:40.428Z,61.45
2023-02-20T16:14:07.484Z,61.74
2023-02-20T16:16:35.546Z,61.69
2023-02-20T16:19:03.869Z,61.72
2023-02-20T16:21:30.789Z,61.86
2023-02-20T16:23:57.485Z,62.08
2023-02-20T16:26:27.765Z,62.09
2023-02-20T16:29:03.346Z,61.98
2023-02-20T16:32:00.980Z,62.12
2023-02-20T16:34:31.554Z,62.19
2023-02-20T16:36:58.749Z,62.21
2023-02-20T16:39:27.257Z,62.26
2023-02-20T16:41:54.992Z,62.01
2023-02-20T16:44:24.960Z,62.36
2023-02-20T16:46:51.625Z,62.29
2023-02-20T16:49:18.377Z,62.37
2023-02-20T16:51:59.282Z,62.36
2023-02-20T16:54:25.919Z,62.40
2023-02-20T16:56:52.516Z,62.61
2023-02-20T16:59:19.905Z,62.63
2023-02-20T17:01:46.615Z,62.69
2023-02-20T17:04:14.569Z,62.75
2023-02-20T17:06:41.381Z,62.58
2023-02-20T17:09:07.942Z,62.81
2023-02-20T17:11:34.461Z,62.98
2023-02-20T17:14:01.073Z,62.63
2023-02-20T17:16:32.017Z,62.76
2023-02-20T17:18:58.824Z,63.04
2023-02-20T17:21:25.353Z,63.00
2023-02-20T17:23:51.906Z,62.80
2023-02-20T17:26:18.522Z,62.88
2023-02-20T17:28:45.099Z,63.04
2023-02-20T17:31:11.994Z,63.31
2023-02-20T17:33:40.835Z,63.13
2023-02-20T17:36:07.836Z,63.25
2023-02-20T17:38:34.388Z,63.32
2023-02-20T17:41:01.224Z,63.07
2023-02-20T17:43:27.922Z,63.46
2023-02-20T17:45:54.477Z,63.16
2023-02-20T17:48:21.082Z,63.38
2023-02-20T17:50:47.659Z,63.26
2023-02-20T17:53:15.103Z,63.56
2023-02-20T17:55:41.873Z,63.69
2023-02-20T17:58:08.519Z,63.41
2023-02-20T18:00:35.228Z,63.58
2023-02-20T18:03:01.891Z,63.52
2023-02-20T18:05:28.445Z,63.71
2023-02-20T18:07:55.007Z,63.61
2023-02-20T18:10:22.070Z,63.54
2023-02-20T18:13:02.522Z,63.86
2023-02-20T18:15:34.973Z,63.80
2023-02-20T18:18:02.300Z,63.79
2023-02-20T18:20:29.262Z,63.81
2023-02-20T18:22:57.509Z,63.58
2023-02-20T18:25:38.023Z,63.65
2023-02-20T18:28:05.985Z,63.72
2023-02-20T18:30:33.755Z,63.58
2023-02-20T18:33:00.573Z,63.60
2023-02-20T18:35:27.192Z,63.76
2023-02-20T18:37:53.937Z,63.75
2023-02-20T18:40:20.590Z,63.92
2023-02-20T18:42:47.179Z,63.66
2023-02-20T18:45:13.817Z,63.82
2023-02-20T18:47:40.502Z,64.05
2023-02-20T18:50:07.821Z,64.15
2023-02-20T18:52:40.568Z,63.95
2023-02-20T18:55:10.136Z,63.88
2023-02-20T18:57:36.680Z,64.14
2023-02-20T19:00:04.352Z,63.89
2023-02-20T19:02:30.962Z,64.13
2023-02-20T19:04:58.872Z,63.92
2023-02-20T19:07:25.452Z,63.83
2023-02-20T19:09:54.105Z,63.86
2023-02-20T19:12:20.829Z,64.00
2023-02-20T19:14:47.436Z,64.09
2023-02-20T19:17:14.092Z,63.86
2023-02-20T19:19:42.449Z,63.82
2023-02-20T19:22:09.234Z,63.91
2023-02-20T19:24:39.480Z,64.06
2023-02-20T19:27:06.072Z,63.94
2023-02-20T19:29:32.680Z,63.73
2023-02-20T19:32:00.358Z,63.83
2023-02-20T19:34:27.654Z,63.81
2023-02-20T19:36:55.170Z,64.03
2023-02-20T19:39:22.097Z,64.00
2023-02-20T19:41:49.646Z,63.99
2023-02-20T19:44:17.040Z,64.00
2023-02-20T19:46:44.071Z,63.94
2023-02-20T19:49:12.734Z,64.07
2023-02-20T19:51:43.733Z,63.97
2023-02-20T19:54:10.404Z,63.80
2023-02-20T19:56:36.915Z,64.00
2023-02-20T19:59:03.483Z,63.91
2023-02-20T20:01:30.154Z,64.08
2023-02-20T20:03:56.720Z,63.87
2023-02-20T20:06:26.887Z,64.06
2023-02-20T20:09:10.518Z,63.94
2023-02-20T20:11:40.054Z,64.01
2023-02-20T20:14:06.728Z,63.71
2023-02-20T20:16:35.278Z,63.85
2023-02-20T20:19:01.884Z,63.84
2023-02-20T20:21:28.528Z,63.65
2023-02-20T20:23:55.494Z,63.73
2023-02-20T20:26:26.483Z,63.48
2023-02-20T20:28:53.364Z,63.58
2023-02-20T20:31:24.510Z,63.58
2023-02-20T20:33:57.205Z,63.62
2023-02-20T20:36:23.903Z,63.65
2023-02-20T20:38:50.643Z,63.68
2023-02-20T20:41:17.486Z,63.73
2023-02-20T20:43:49.235Z,63.58
2023-02-20T20:46:19.175Z,63.62
2023-02-20T20:48:47.842Z,63.69
2023-02-20T20:51:24.695Z,63.79
2023-02-20T20:53:51.601Z,63.75
2023-02-20T20:56:18.578Z,63.75
2023-02-20T20:58:45.512Z,63.75
2023-02-20T21:01:12.818Z,63.82
2023-02-20T21:03:39.676Z,63.78
2023-02-20T21:06:06.450Z,63.85
2023-02-20T21:08:33.985Z,63.85
2023-02-20T21:11:01.052Z,63.72
2023-02-20T21:13:30.847Z,63.81
2023-02-20T21:15:57.859Z,64.08
2023-02-20T21:18:24.517Z,64.07
2023-02-20T21:20:51.993Z,64.44
2023-02-20T21:23:21.596Z,64.50
2023-02-20T21:25:48.443Z,64.76
2023-02-20T21:28:17.618Z,64.72
2023-02-20T21:30:47.894Z,64.85
2023-02-20T21:33:20.128Z,64.64
2023-02-20T21:35:49.108Z,64.92
2023-02-20T21:38:16.476Z,64.80
2023-02-20T21:40:46.125Z,64.95
2023-02-20T21:43:31.399Z,65.04
2023-02-20T21:45:58.156Z,65.13
2023-02-20T21:48:24.820Z,64.98
2023-02-20T21:50:51.827Z,65.35
2023-02-20T21:53:18.545Z,65.17
2023-02-20T21:55:48.108Z,65.24
2023-02-20T21:58:14.702Z,65.22
2023-02-20T22:00:41.474Z,65.35
2023-02-20T22:03:08.325Z,65.38
2023-02-20T23:51:43.197Z,64.53
2023-02-20T23:54:28.422Z,64.63
2023-02-20T23:57:13.852Z,64.84
2023-02-20T23:59:58.773Z,64.71
